createdAt,value
2023-04-18T00:01:30.788Z,50.08
2023-04-18T00:03:58.196Z,48.55
2023-04-18T00:06:25.998Z,49.17
2023-04-18T00:08:53.314Z,46.55
2023-04-18T00:11:20.713Z,47.20
2023-04-18T00:13:48.134Z,48.67
2023-04-18T00:16:15.716Z,49.28
2023-04-18T00:18:43.074Z,50.17
2023-04-18T00:21:10.303Z,48.45
2023-04-18T00:23:39.809Z,49.47
2023-04-18T00:26:07.146Z,48.78
2023-04-18T00:28:34.620Z,50.20
2023-04-18T00:31:02.142Z,48.50
2023-04-18T00:33:32.370Z,50.20
2023-04-18T00:35:59.686Z,50.28
2023-04-18T00:38:26.924Z,51.50
2023-04-18T00:40:54.241Z,50.97
2023-04-18T00:43:23.816Z,51.40
2023-04-18T00:45:51.178Z,54.65
2023-04-18T00:48:18.504Z,55.50
2023-04-18T00:50:46.036Z,54.53
2023-04-18T00:53:13.548Z,56.22
2023-04-18T00:55:41.777Z,55.05
2023-04-18T00:58:09.296Z,53.50
2023-04-18T01:00:36.940Z,55.67
2023-04-18T01:03:04.724Z,54.88
2023-04-18T01:05:32.003Z,53.65
2023-04-18T01:08:01.244Z,55.10
2023-04-18T01:10:30.053Z,54.88
2023-04-18T01:13:17.322Z,56.13
2023-04-18T01:15:46.879Z,55.88
2023-04-18T01:18:18.506Z,54.40
2023-04-18T01:20:50.963Z,54.78
2023-04-18T01:23:20.703Z,55.35
2023-04-18T01:25:51.808Z,54.17
2023-04-18T01:28:21.239Z,53.63
2023-04-18T01:30:49.188Z,56.17
2023-04-18T01:33:16.485Z,55.13
2023-04-18T01:35:46.403Z,55.63
2023-04-18T01:38:13.637Z,54.65
2023-04-18T01:40:40.915Z,54.33
2023-04-18T01:43:08.369Z,56.15
2023-04-18T01:45:38.220Z,54.33
2023-04-18T01:48:05.739Z,54.78
2023-04-18T01:50:33.588Z,56.03
2023-04-18T01:53:00.898Z,56.38
2023-04-18T01:55:28.131Z,56.28
2023-04-18T01:57:55.462Z,56.08
2023-04-18T02:00:22.863Z,56.20
2023-04-18T02:02:50.522Z,55.30
2023-04-18T02:05:18.139Z,54.70
2023-04-18T02:07:45.678Z,55.75
2023-04-18T02:10:13.010Z,55.17
2023-04-18T02:12:40.238Z,56.63
2023-04-18T02:15:07.989Z,55.80
2023-04-18T02:17:36.852Z,55.95
2023-04-18T02:20:04.569Z,57.05
2023-04-18T02:22:31.902Z,55.83
2023-04-18T02:25:01.052Z,54.03
2023-04-18T02:27:28.364Z,56.13
2023-04-18T02:29:57.670Z,54.50
2023-04-18T02:32:25.107Z,53.38
2023-04-18T02:34:52.443Z,55.10
2023-04-18T02:37:19.725Z,54.30
2023-04-18T02:39:47.030Z,53.08
2023-04-18T02:42:14.789Z,54.20
2023-04-18T02:44:42.081Z,54.38
2023-04-18T02:47:09.983Z,54.17
2023-04-18T02:49:40.501Z,54.17
2023-04-18T02:52:07.773Z,55.08
2023-04-18T02:54:35.099Z,52.40
2023-04-18T02:57:07.616Z,53.22
2023-04-18T02:59:55.099Z,52.53
2023-04-18T03:02:31.581Z,53.38
2023-04-18T03:05:06.721Z,52.85
2023-04-18T03:07:34.145Z,52.85
2023-04-18T03:10:01.427Z,52.95
2023-04-18T03:12:33.771Z,53.10
2023-04-18T03:15:01.585Z,54.55
2023-04-18T03:17:29.099Z,52.65
2023-04-18T03:19:56.383Z,52.58
2023-04-18T03:22:24.526Z,54.90
2023-04-18T03:24:56.908Z,54.72
2023-04-18T03:27:38.475Z,52.65
2023-04-18T03:30:06.475Z,54.08
2023-04-18T03:32:35.287Z,54.30
2023-04-18T03:35:03.283Z,54.60
2023-04-18T03:37:30.939Z,54.63
2023-04-18T03:39:59.951Z,55.65
2023-04-18T03:42:29.723Z,56.15
2023-04-18T03:44:57.220Z,56.45
2023-04-18T03:47:25.635Z,55.72
2023-04-18T03:49:56.921Z,54.38
2023-04-18T03:52:27.001Z,53.67
2023-04-18T03:54:55.344Z,56.42
2023-04-18T03:57:26.207Z,54.13
2023-04-18T03:59:54.331Z,55.05
2023-04-18T04:02:22.003Z,57.80
2023-04-18T04:04:50.693Z,55.30
2023-04-18T04:07:18.238Z,55.63
2023-04-18T04:09:45.764Z,58.33
2023-04-18T04:12:13.134Z,57.53
2023-04-18T04:14:40.589Z,58.67
2023-04-18T04:17:08.005Z,58.50
2023-04-18T04:19:36.286Z,57.28
2023-04-18T04:22:13.480Z,57.65
2023-04-18T04:24:42.824Z,58.88
2023-04-18T04:27:12.608Z,60.30
2023-04-18T04:29:43.763Z,61.15
2023-04-18T04:32:13.019Z,59.17
2023-04-18T04:34:41.884Z,61.47
2023-04-18T04:37:14.038Z,61.00
2023-04-18T04:39:52.635Z,60.67
2023-04-18T04:42:44.068Z,63.60
2023-04-18T04:45:18.131Z,63.50
2023-04-18T04:47:46.360Z,63.70
2023-04-18T04:50:15.687Z,64.35
2023-04-18T04:52:43.125Z,63.65
2023-04-18T04:55:11.944Z,60.65
2023-04-18T04:57:40.976Z,63.42
2023-04-18T05:00:24.608Z,62.60
2023-04-18T05:02:53.782Z,63.83
2023-04-18T05:05:21.140Z,61.80
2023-04-18T05:07:48.578Z,62.78
2023-04-18T05:10:15.852Z,63.72
2023-04-18T05:12:43.192Z,63.92
2023-04-18T05:15:10.996Z,62.85
2023-04-18T05:17:38.211Z,64.72
2023-04-18T05:20:06.312Z,63.15
2023-04-18T05:22:33.682Z,63.22
2023-04-18T05:25:01.522Z,64.05
2023-04-18T05:27:28.917Z,61.60
2023-04-18T05:29:56.276Z,63.28
2023-04-18T05:32:23.665Z,61.25
2023-04-18T05:34:51.239Z,62.50
2023-04-18T05:37:18.675Z,63.03
2023-04-18T05:39:46.204Z,63.38
2023-04-18T05:42:13.435Z,60.22
2023-04-18T05:44:40.695Z,60.85
2023-04-18T05:47:07.954Z,61.30
2023-04-18T05:49:35.283Z,60.65
2023-04-18T05:52:02.697Z,61.00
2023-04-18T05:54:30.054Z,60.42
2023-04-18T05:56:57.378Z,60.20
2023-04-18T05:59:26.819Z,59.42
2023-04-18T06:01:54.087Z,61.67
2023-04-18T06:04:21.664Z,60.40
2023-04-18T06:06:49.109Z,58.80
2023-04-18T06:09:16.452Z,56.08
2023-04-18T06:11:43.685Z,56.95
2023-04-18T06:14:10.944Z,57.97
2023-04-18T06:16:38.696Z,58.55
2023-04-18T06:19:05.959Z,57.60
2023-04-18T06:21:33.270Z,57.83
2023-04-18T06:24:01.588Z,56.65
2023-04-18T06:26:30.158Z,58.85
2023-04-18T06:28:57.459Z,57.95
2023-04-18T06:31:24.700Z,56.40
2023-04-18T06:33:52.292Z,58.30
2023-04-18T06:36:19.937Z,55.42
2023-04-18T06:38:47.367Z,59.55
2023-04-18T06:41:15.766Z,56.97
2023-04-18T06:43:59.805Z,57.10
2023-04-18T06:46:30.391Z,59.35
2023-04-18T06:48:57.738Z,56.28
2023-04-18T06:51:24.989Z,58.47
2023-04-18T06:53:55.231Z,57.47
2023-04-18T06:56:22.716Z,59.92
2023-04-18T06:58:50.297Z,56.67
2023-04-18T07:01:17.745Z,58.42
2023-04-18T07:03:45.072Z,58.28
2023-04-18T07:06:12.597Z,58.08
2023-04-18T07:08:39.942Z,57.85
2023-04-18T07:11:07.487Z,58.20
2023-04-18T07:13:34.826Z,56.22
2023-04-18T07:16:02.119Z,56.45
2023-04-18T07:18:37.424Z,57.38
2023-04-18T07:21:09.395Z,57.28
2023-04-18T07:23:37.489Z,57.58
2023-04-18T07:26:05.835Z,56.75
2023-04-18T07:28:33.291Z,57.85
2023-04-18T07:31:01.490Z,59.63
2023-04-18T07:33:31.793Z,54.72
2023-04-18T07:36:00.923Z,59.22
2023-04-18T07:38:28.570Z,58.10
2023-04-18T07:41:00.143Z,56.90
2023-04-18T07:43:27.528Z,59.22
2023-04-18T07:45:54.834Z,55.97
2023-04-18T07:48:22.735Z,54.80
2023-04-18T07:50:50.147Z,54.03
2023-04-18T07:53:18.430Z,57.08
2023-04-18T07:55:46.597Z,55.67
2023-04-18T07:58:14.208Z,55.33
2023-04-18T08:00:42.697Z,56.88
2023-04-18T08:03:12.145Z,54.42
2023-04-18T08:05:40.623Z,53.88
2023-04-18T08:08:09.104Z,54.58
2023-04-18T08:10:36.698Z,54.60
2023-04-18T08:13:04.280Z,57.05
2023-04-18T08:15:32.536Z,53.72
2023-04-18T08:18:00.990Z,53.22
2023-04-18T08:20:28.302Z,54.92
2023-04-18T08:25:27.084Z,52.22
2023-04-18T08:27:54.459Z,52.13
2023-04-18T08:30:21.919Z,52.70
2023-04-18T08:32:49.855Z,51.90
2023-04-18T08:35:17.426Z,51.67
2023-04-18T08:37:44.650Z,48.33
2023-04-18T08:40:11.995Z,47.13
2023-04-18T08:42:42.266Z,47.03
2023-04-18T08:45:09.887Z,47.25
2023-04-18T08:47:37.321Z,49.35
2023-04-18T08:50:04.896Z,47.17
2023-04-18T08:52:32.585Z,48.30
2023-04-18T08:55:02.716Z,48.60
2023-04-18T09:00:00.601Z,47.75
2023-04-18T09:02:45.024Z,46.42
2023-04-18T09:05:19.915Z,47.92
2023-04-18T09:07:53.466Z,45.67
2023-04-18T09:10:32.940Z,46.13
2023-04-18T09:13:03.438Z,44.50
2023-04-18T09:15:31.324Z,44.67
2023-04-18T09:18:02.348Z,46.83
2023-04-18T09:20:38.462Z,45.75
2023-04-18T09:23:11.467Z,45.40
2023-04-18T09:25:44.445Z,44.50
2023-04-18T09:28:23.305Z,43.55
2023-04-18T09:30:52.506Z,41.45
2023-04-18T09:33:33.436Z,46.70
2023-04-18T09:36:21.703Z,44.00
2023-04-18T09:38:54.442Z,43.50
2023-04-18T09:41:23.678Z,45.00
2023-04-18T09:44:10.304Z,43.13
2023-04-18T09:46:39.700Z,42.97
2023-04-18T09:49:08.990Z,43.05
2023-04-18T09:51:38.532Z,43.55
2023-04-18T09:54:07.771Z,46.35
2023-04-18T09:56:38.045Z,47.78
2023-04-18T09:59:10.095Z,44.17
2023-04-18T10:01:38.323Z,43.72
2023-04-18T10:04:06.874Z,45.53
2023-04-18T10:06:35.170Z,45.00
2023-04-18T10:09:04.413Z,41.20
2023-04-18T10:11:32.153Z,41.92
2023-04-18T10:14:07.177Z,41.55
2023-04-18T10:16:36.327Z,41.42
2023-04-18T10:19:26.498Z,42.83
2023-04-18T10:21:53.805Z,42.10
2023-04-18T10:24:47.279Z,41.97
2023-04-18T10:27:15.273Z,43.25
2023-04-18T10:29:52.906Z,40.33
2023-04-18T10:32:22.727Z,39.53
2023-04-18T10:34:50.611Z,38.08
2023-04-18T10:37:19.027Z,39.08
2023-04-18T10:40:01.017Z,37.10
2023-04-18T10:42:58.384Z,36.22
2023-04-18T10:45:28.543Z,35.30
2023-04-18T10:51:26.904Z,36.00
2023-04-18T10:53:57.364Z,36.20
2023-04-18T10:56:26.107Z,35.13
2023-04-18T10:58:54.050Z,36.17
2023-04-18T11:01:33.143Z,35.03
2023-04-18T11:04:01.156Z,34.57
2023-04-18T11:06:29.065Z,34.22
2023-04-18T11:09:10.708Z,33.83
2023-04-18T11:11:38.019Z,33.42
2023-04-18T11:14:05.486Z,33.33
2023-04-18T11:16:33.613Z,34.92
2023-04-18T11:19:01.048Z,33.78
2023-04-18T11:21:30.594Z,33.90
2023-04-18T11:23:58.769Z,33.47
2023-04-18T11:26:27.172Z,33.20
2023-04-18T11:28:58.118Z,32.42
2023-04-18T11:31:25.648Z,29.15
2023-04-18T11:33:56.756Z,26.50
2023-04-18T11:36:24.201Z,25.73
2023-04-18T11:38:51.426Z,23.33
2023-04-18T11:41:18.706Z,22.05
2023-04-18T11:43:46.602Z,20.50
2023-04-18T11:46:13.942Z,22.77
2023-04-18T11:48:42.650Z,24.73
2023-04-18T11:51:37.008Z,23.85
2023-04-18T11:54:04.531Z,23.23
2023-04-18T11:56:32.294Z,21.65
2023-04-18T11:59:08.806Z,19.17
2023-04-18T12:01:36.216Z,20.38
2023-04-18T12:04:05.535Z,19.48
2023-04-18T12:06:48.690Z,19.83
2023-04-18T12:09:17.414Z,21.70
2023-04-18T12:11:46.317Z,20.98
2023-04-18T12:14:21.626Z,21.27
2023-04-18T12:16:49.678Z,20.30
2023-04-18T12:19:17.232Z,22.58
2023-04-18T12:22:02.107Z,21.67
2023-04-18T12:24:29.545Z,22.98
2023-04-18T12:26:58.095Z,23.90
2023-04-18T12:29:27.127Z,22.67
2023-04-18T12:31:54.668Z,22.30
2023-04-18T12:34:22.388Z,17.05
2023-04-18T12:36:49.713Z,17.45
2023-04-18T12:39:17.145Z,17.10
2023-04-18T12:41:44.608Z,18.42
2023-04-18T12:44:12.007Z,20.55
2023-04-18T12:46:41.893Z,17.25
2023-04-18T12:49:09.312Z,14.82
2023-04-18T12:51:36.735Z,15.45
2023-04-18T12:54:04.181Z,14.75
2023-04-18T12:56:31.490Z,15.15
2023-04-18T12:58:58.854Z,16.15
2023-04-18T13:01:26.263Z,16.50
2023-04-18T13:04:08.448Z,13.85
2023-04-18T13:06:39.534Z,13.80
2023-04-18T13:09:07.272Z,13.73
2023-04-18T13:11:34.579Z,14.88
2023-04-18T13:14:02.046Z,15.65
2023-04-18T13:16:29.632Z,15.38
2023-04-18T13:18:56.967Z,14.35
2023-04-18T13:21:25.880Z,15.88
2023-04-18T13:23:53.303Z,13.13
2023-04-18T13:26:20.720Z,13.98
2023-04-18T13:28:48.121Z,14.27
2023-04-18T13:31:17.070Z,13.65
2023-04-18T13:33:44.690Z,13.40
2023-04-18T13:36:12.070Z,10.90
2023-04-18T13:38:39.853Z,11.35
2023-04-18T13:41:12.817Z,10.68
2023-04-18T13:43:40.978Z,11.63
2023-04-18T13:46:08.576Z,9.23
2023-04-18T13:48:36.153Z,8.63
2023-04-18T13:51:03.587Z,9.27
2023-04-18T13:53:31.253Z,7.95
2023-04-18T13:55:59.210Z,8.27
2023-04-18T13:58:26.444Z,7.68
2023-04-18T14:00:53.972Z,6.90
2023-04-18T14:03:21.352Z,9.57
2023-04-18T14:05:48.804Z,10.57
2023-04-18T14:08:16.430Z,11.25
2023-04-18T14:10:43.728Z,9.02
2023-04-18T14:13:11.049Z,7.63
2023-04-18T14:15:38.839Z,7.47
2023-04-18T14:18:06.535Z,6.88
2023-04-18T14:20:36.734Z,6.80
2023-04-18T14:25:31.087Z,6.30
2023-04-18T14:28:12.163Z,6.45
2023-04-18T14:30:39.975Z,7.47
2023-04-18T14:33:08.745Z,7.90
2023-04-18T14:35:36.206Z,7.82
2023-04-18T14:38:03.435Z,9.25
2023-04-18T14:40:32.556Z,8.35
2023-04-18T14:43:00.513Z,8.73
2023-04-18T14:45:28.112Z,8.38
2023-04-18T14:47:55.860Z,7.20
2023-04-18T14:50:23.309Z,6.93
2023-04-18T14:52:51.016Z,6.10
2023-04-18T14:55:21.776Z,5.88
2023-04-18T14:57:49.091Z,5.65
2023-04-18T15:00:16.665Z,5.85
2023-04-18T15:02:44.323Z,6.40
2023-04-18T15:05:12.523Z,6.20
2023-04-18T15:07:40.791Z,6.63
2023-04-18T15:10:08.573Z,6.05
2023-04-18T15:12:36.108Z,6.07
2023-04-18T15:15:03.456Z,6.40
2023-04-18T15:17:30.892Z,6.40
2023-04-18T15:20:01.060Z,6.45
2023-04-18T15:24:55.468Z,6.53
2023-04-18T15:27:22.839Z,6.80
2023-04-18T15:29:50.146Z,6.55
2023-04-18T15:32:17.985Z,7.25
2023-04-18T15:34:45.380Z,7.00
2023-04-18T15:37:12.669Z,6.22
2023-04-18T15:39:40.126Z,6.38
2023-04-18T15:42:07.626Z,6.93
2023-04-18T15:44:34.849Z,7.10
2023-04-18T15:47:02.362Z,8.50
2023-04-18T15:49:29.625Z,6.70
2023-04-18T15:51:56.933Z,6.70
2023-04-18T15:54:24.258Z,6.90
2023-04-18T15:56:51.637Z,6.72
2023-04-18T15:59:18.958Z,6.30
2023-04-18T16:01:46.422Z,6.60
2023-04-18T16:04:14.207Z,6.07
2023-04-18T16:06:41.807Z,6.10
2023-04-18T16:09:09.961Z,6.50
2023-04-18T16:11:37.247Z,6.50
2023-04-18T16:14:04.474Z,6.43
2023-04-18T16:16:32.122Z,5.65
2023-04-18T16:18:59.840Z,5.97
2023-04-18T16:21:28.306Z,6.70
2023-04-18T16:23:56.984Z,6.60
2023-04-18T16:26:24.991Z,6.35
2023-04-18T16:28:52.393Z,6.60
2023-04-18T16:31:19.855Z,6.57
2023-04-18T16:33:47.292Z,6.20
2023-04-18T16:36:15.187Z,6.80
2023-04-18T16:38:42.572Z,6.47
2023-04-18T16:41:09.891Z,6.55
2023-04-18T16:43:38.058Z,6.40
2023-04-18T16:46:05.692Z,6.50
2023-04-18T16:48:33.079Z,6.20
2023-04-18T16:51:00.724Z,6.20
2023-04-18T16:53:28.497Z,6.65
2023-04-18T16:55:55.970Z,5.95
2023-04-18T16:58:23.701Z,6.47
2023-04-18T17:00:52.871Z,6.50
2023-04-18T17:03:20.598Z,6.72
2023-04-18T17:05:47.957Z,6.07
2023-04-18T17:08:15.191Z,6.05
2023-04-18T17:10:42.556Z,6.68
2023-04-18T17:13:09.874Z,7.20
2023-04-18T17:15:38.199Z,6.82
2023-04-18T17:18:05.794Z,6.60
2023-04-18T17:20:33.171Z,6.43
2023-04-18T17:23:00.708Z,6.47
2023-04-18T17:25:27.922Z,5.88
2023-04-18T17:27:55.196Z,6.65
2023-04-18T17:30:22.540Z,6.50
2023-04-18T17:32:50.540Z,6.78
2023-04-18T17:35:17.926Z,7.30
2023-04-18T17:37:46.625Z,7.03
2023-04-18T17:40:14.256Z,7.60
2023-04-18T17:42:41.677Z,7.60
2023-04-18T17:45:10.012Z,7.40
2023-04-18T17:47:37.547Z,7.47
2023-04-18T17:50:05.392Z,7.10
2023-04-18T17:52:33.092Z,9.77
2023-04-18T17:55:01.659Z,7.28
2023-04-18T17:57:30.563Z,7.70
2023-04-18T17:59:58.086Z,7.35
2023-04-18T18:02:25.566Z,7.45
2023-04-18T18:04:53.148Z,7.63
2023-04-18T18:07:20.946Z,7.97
2023-04-18T18:09:48.407Z,8.43
2023-04-18T18:12:15.823Z,9.38
2023-04-18T18:14:43.075Z,9.15
2023-04-18T18:17:11.195Z,8.88
2023-04-18T18:19:38.927Z,10.05
2023-04-18T18:22:07.090Z,9.63
2023-04-18T18:24:34.583Z,9.90
2023-04-18T18:27:01.829Z,9.77
2023-04-18T18:29:30.372Z,10.40
2023-04-18T18:31:57.569Z,10.18
2023-04-18T18:34:25.116Z,11.15
2023-04-18T18:36:52.428Z,10.43
2023-04-18T18:39:20.051Z,10.82
2023-04-18T18:41:47.312Z,11.05
2023-04-18T18:44:14.722Z,10.30
2023-04-18T18:46:43.237Z,11.65
2023-04-18T18:49:10.732Z,11.20
2023-04-18T18:51:38.087Z,11.10
2023-04-18T18:54:05.500Z,11.80
2023-04-18T18:56:32.948Z,10.98
2023-04-18T18:59:00.284Z,10.57
2023-04-18T19:01:30.123Z,10.57
2023-04-18T19:03:57.561Z,10.98
2023-04-18T19:06:24.938Z,10.48
2023-04-18T19:08:52.378Z,10.90
2023-04-18T19:11:19.791Z,10.57
2023-04-18T19:13:47.129Z,10.32
2023-04-18T19:16:14.719Z,11.00
2023-04-18T19:18:46.864Z,10.77
2023-04-18T19:21:14.122Z,11.32
2023-04-18T19:23:42.138Z,11.10
2023-04-18T19:26:12.363Z,10.85
2023-04-18T19:31:06.960Z,11.52
2023-04-18T19:33:34.282Z,11.77
2023-04-18T19:36:02.186Z,12.00
2023-04-18T19:38:29.405Z,12.88
2023-04-18T19:40:57.288Z,12.90
2023-04-18T19:43:24.586Z,12.77
2023-04-18T19:45:53.872Z,13.40
2023-04-18T19:48:22.439Z,13.43
2023-04-18T19:50:50.104Z,13.18
2023-04-18T19:53:18.988Z,13.15
2023-04-18T19:55:46.320Z,14.32
2023-04-18T19:58:34.609Z,14.88
2023-04-18T20:01:02.037Z,14.45
2023-04-18T20:03:29.517Z,14.43
2023-04-18T20:05:56.991Z,15.68
2023-04-18T20:08:24.230Z,14.60
2023-04-18T20:10:51.572Z,14.95
2023-04-18T20:13:18.893Z,15.07
2023-04-18T20:15:46.110Z,15.90
2023-04-18T20:18:13.507Z,15.07
2023-04-18T20:20:41.336Z,15.65
2023-04-18T20:23:09.189Z,15.95
2023-04-18T20:25:36.612Z,15.63
2023-04-18T20:28:04.038Z,15.07
2023-04-18T20:30:31.469Z,16.17
2023-04-18T20:32:58.871Z,15.07
2023-04-18T20:35:28.077Z,15.98
2023-04-18T20:37:55.711Z,16.38
2023-04-18T20:40:23.092Z,16.52
2023-04-18T20:42:50.619Z,15.73
2023-04-18T20:45:17.998Z,16.00
2023-04-18T20:47:45.819Z,16.13
2023-04-18T20:50:14.035Z,15.63
2023-04-18T20:52:42.847Z,16.42
2023-04-18T20:55:10.979Z,16.10
2023-04-18T20:57:38.225Z,15.93
2023-04-18T21:00:07.299Z,16.02
2023-04-18T21:02:34.680Z,16.35
2023-04-18T21:05:02.460Z,15.95
2023-04-18T21:07:31.165Z,15.77
2023-04-18T21:09:58.503Z,16.15
2023-04-18T21:12:25.883Z,15.50
2023-04-18T21:14:53.104Z,15.00
2023-04-18T21:17:20.428Z,15.80
2023-04-18T21:19:48.730Z,15.23
2023-04-18T21:22:16.419Z,15.40
2023-04-18T21:24:43.897Z,15.27
2023-04-18T21:27:11.374Z,15.40
2023-04-18T21:29:38.845Z,16.90
2023-04-18T21:32:06.204Z,15.02
2023-04-18T21:34:33.465Z,16.58
2023-04-18T21:37:00.838Z,17.00
2023-04-18T21:39:28.109Z,16.02
2023-04-18T21:41:55.347Z,16.08
2023-04-18T21:44:22.790Z,16.15
2023-04-18T21:46:50.037Z,16.38
2023-04-18T21:49:17.435Z,16.05
2023-04-18T21:51:45.306Z,16.90
2023-04-18T21:54:12.707Z,16.63
2023-04-18T21:56:40.194Z,16.42
2023-04-18T21:59:07.408Z,16.17
2023-04-18T22:01:35.869Z,16.58
2023-04-18T22:04:03.353Z,16.15
2023-04-18T22:06:32.342Z,16.92
2023-04-18T22:09:00.969Z,17.10
2023-04-18T22:11:28.893Z,15.65
2023-04-18T22:13:58.146Z,15.73
2023-04-18T22:16:25.990Z,16.08
2023-04-18T22:18:53.996Z,16.30
2023-04-18T22:21:21.339Z,16.10
2023-04-18T22:23:48.555Z,16.45
2023-04-18T22:26:15.834Z,17.48
2023-04-18T22:28:43.259Z,16.83
2023-04-18T22:31:10.698Z,16.30
2023-04-18T22:33:38.061Z,16.63
2023-04-18T22:36:05.933Z,17.42
2023-04-18T22:38:33.228Z,16.83
2023-04-18T22:41:00.811Z,17.13
2023-04-18T22:43:28.454Z,16.95
2023-04-18T22:45:56.550Z,16.58
2023-04-18T22:48:23.932Z,16.13
2023-04-18T22:50:51.175Z,16.45
2023-04-18T22:53:18.458Z,16.95
2023-04-18T22:55:46.305Z,17.00
2023-04-18T22:58:14.214Z,16.10
2023-04-18T23:00:42.651Z,16.77
2023-04-18T23:03:10.327Z,17.02
2023-04-18T23:05:37.629Z,16.35
2023-04-18T23:08:06.916Z,16.50
2023-04-18T23:10:34.409Z,15.88
2023-04-18T23:13:01.613Z,16.10
2023-04-18T23:15:28.936Z,16.35
2023-04-18T23:17:56.281Z,16.45
2023-04-18T23:20:24.088Z,15.77
2023-04-18T23:22:51.786Z,16.00
2023-04-18T23:25:22.389Z,16.73
2023-04-18T23:27:49.660Z,17.10
2023-04-18T23:30:17.225Z,17.73
2023-04-18T23:32:44.528Z,16.83
2023-04-18T23:35:12.001Z,16.15
2023-04-18T23:37:39.423Z,16.35
2023-04-18T23:40:08.035Z,16.52
2023-04-18T23:42:35.722Z,17.10
2023-04-18T23:45:04.041Z,16.30
2023-04-18T23:47:31.609Z,16.25
2023-04-18T23:49:59.139Z,17.00
2023-04-18T23:52:26.584Z,16.98
2023-04-18T23:54:53.941Z,17.00
2023-04-18T23:57:21.364Z,17.05
2023-04-18T23:59:48.881Z,16.45
